Time;durP1;ratioP1;P1;durP2;ratioP2;P2;SDS_P1;SDS_P2;PMS_P1;PMS_P2;Temp;Humidity;BMP_temperature;BMP_pressure;BME280_temperature;BME280_humidity;BME280_pressure;Samples;Min_cycle;Max_cycle;Signal;HPM_P1;HPM_P2
2022/08/13 00:01:16;;;;;;;6.05;3.22;;;;;;;;;;5112084;27;20381;-75
2022/08/13 00:03:44;;;;;;;5.28;3.50;;;;;;;;;;5111442;28;20487;-75
2022/08/13 00:06:11;;;;;;;5.43;3.05;;;;;;;;;;5110950;28;20408;-75
2022/08/13 00:10:19;;;;;;;6.45;3.63;;;;;;;;;;5112281;27;20830;-75
2022/08/13 00:12:57;;;;;;;5.20;3.55;;;;;;;;;;5111226;28;20031;-75
2022/08/13 00:16:06;;;;;;;6.18;3.67;;;;;;;;;;5111928;27;20915;-76
2022/08/13 00:21:34;;;;;;;5.50;3.50;;;;;;;;;;5111857;27;20109;-76
2022/08/13 00:25:29;;;;;;;6.10;3.63;;;;;;;;;;5112029;27;20396;-75
2022/08/13 00:27:59;;;;;;;5.75;3.38;;;;;;;;;;5111003;28;20028;-75
2022/08/13 00:30:33;;;;;;;6.35;3.67;;;;;;;;;;5111299;28;20024;-75
2022/08/13 00:33:08;;;;;;;5.35;3.60;;;;;;;;;;5111004;28;20032;-75
2022/08/13 00:35:40;;;;;;;5.28;3.33;;;;;;;;;;5111280;28;20026;-76
2022/08/13 00:38:23;;;;;;;6.45;3.75;;;;;;;;;;5111871;27;20389;-75
2022/08/13 00:40:54;;;;;;;7.50;3.70;;;;;;;;;;5111191;28;20038;-75
2022/08/13 00:43:20;;;;;;;5.93;3.40;;;;;;;;;;5111565;28;20111;-74
2022/08/13 00:45:47;;;;;;;5.65;3.58;;;;;;;;;;5111543;28;20047;-75
2022/08/13 00:49:06;;;;;;;6.68;3.35;;;;;;;;;;5111791;27;20385;-74
2022/08/13 00:53:18;;;;;;;7.07;4.32;;;;;;;;;;5111476;27;20426;-75
2022/08/13 01:00:11;;;;;;;6.55;4.05;;;;;;;;;;5111450;27;20392;-75
2022/08/13 01:02:39;;;;;;;6.78;3.80;;;;;;;;;;5111010;28;20073;-75
2022/08/13 01:05:05;;;;;;;7.07;4.00;;;;;;;;;;5111317;28;20476;-75
2022/08/13 01:08:53;;;;;;;5.45;3.70;;;;;;;;;;5111131;27;20397;-75
2022/08/13 01:11:43;;;;;;;6.65;3.88;;;;;;;;;;5111652;27;20385;-75
2022/08/13 01:15:49;;;;;;;7.80;4.30;;;;;;;;;;5111510;27;20388;-74
2022/08/13 01:18:48;;;;;;;5.38;3.47;;;;;;;;;;5111532;27;20400;-75
2022/08/13 01:21:52;;;;;;;7.65;4.05;;;;;;;;;;5111941;27;20449;-75
2022/08/13 01:27:26;;;;;;;6.57;3.95;;;;;;;;;;5111451;27;20908;-74
2022/08/13 01:29:52;;;;;;;6.05;4.03;;;;;;;;;;5110990;28;20032;-74
2022/08/13 01:32:21;;;;;;;7.25;3.72;;;;;;;;;;5111320;28;20024;-74
2022/08/13 01:37:59;;;;;;;6.43;4.05;;;;;;;;;;5111059;27;20426;-75
2022/08/13 01:41:53;;;;;;;6.13;3.78;;;;;;;;;;5111624;27;20392;-74
2022/08/13 01:56:13;;;;;;;8.23;4.40;;;;;;;;;;5112051;27;20385;-75
2022/08/13 01:58:39;;;;;;;6.28;4.13;;;;;;;;;;5110963;28;20032;-76
2022/08/13 02:01:06;;;;;;;6.03;3.95;;;;;;;;;;5111374;28;20077;-75
2022/08/13 02:03:32;;;;;;;6.50;4.38;;;;;;;;;;5111339;28;20039;-74
2022/08/13 02:10:21;;;;;;;7.55;4.35;;;;;;;;;;5112225;27;20977;-74
2022/08/13 02:12:51;;;;;;;8.85;4.05;;;;;;;;;;5110972;28;20066;-74
2022/08/13 02:15:17;;;;;;;8.70;4.45;;;;;;;;;;5110014;28;20027;-74
2022/08/13 02:17:45;;;;;;;6.10;4.10;;;;;;;;;;5111365;28;20067;-74
2022/08/13 02:20:21;;;;;;;7.40;4.10;;;;;;;;;;5110808;28;20016;-74
2022/08/13 02:22:47;;;;;;;6.45;3.92;;;;;;;;;;5111278;28;20070;-75
2022/08/13 02:30:47;;;;;;;6.50;3.70;;;;;;;;;;5112257;27;20392;-74
2022/08/13 02:34:57;;;;;;;7.57;4.45;;;;;;;;;;5111627;27;20417;-74
2022/08/13 02:37:24;;;;;;;6.05;3.85;;;;;;;;;;5110136;28;20111;-74
2022/08/13 02:43:52;;;;;;;7.03;4.22;;;;;;;;;;5111956;27;20389;-74
2022/08/13 02:46:21;;;;;;;6.95;4.90;;;;;;;;;;5110995;28;20078;-74
2022/08/13 02:48:49;;;;;;;8.20;5.18;;;;;;;;;;5111389;28;20448;-74
2022/08/13 02:55:52;;;;;;;6.38;4.45;;;;;;;;;;5112087;27;20636;-75
2022/08/13 02:59:10;;;;;;;8.27;4.57;;;;;;;;;;5111962;27;20390;-74
2022/08/13 03:01:38;;;;;;;6.88;4.30;;;;;;;;;;5111175;28;20020;-75
2022/08/13 03:04:05;;;;;;;8.10;4.75;;;;;;;;;;5111351;28;20020;-75
2022/08/13 03:06:31;;;;;;;8.10;4.65;;;;;;;;;;5111342;28;20023;-75
2022/08/13 03:09:01;;;;;;;9.18;5.13;;;;;;;;;;5110799;28;20038;-75
2022/08/13 03:11:28;;;;;;;6.65;4.30;;;;;;;;;;5111516;28;20407;-75
2022/08/13 03:14:00;;;;;;;6.90;4.63;;;;;;;;;;5111438;28;20524;-75
2022/08/13 03:16:45;;;;;;;7.53;4.43;;;;;;;;;;5111259;27;20903;-74
2022/08/13 03:22:57;;;;;;;7.53;3.85;;;;;;;;;;5173308;27;20118;-74
2022/08/13 03:25:25;;;;;;;6.07;3.50;;;;;;;;;;5152893;27;20034;-74
2022/08/13 03:27:52;;;;;;;6.40;3.92;;;;;;;;;;5152568;27;20019;-74
2022/08/13 03:31:43;;;;;;;7.05;4.70;;;;;;;;;;5111915;27;20389;-74
2022/08/13 03:34:10;;;;;;;9.73;5.30;;;;;;;;;;5111450;28;20028;-74
2022/08/13 03:37:59;;;;;;;9.65;4.90;;;;;;;;;;5112133;27;20418;-74
2022/08/13 03:41:00;;;;;;;9.07;5.20;;;;;;;;;;5111745;28;20115;-74
2022/08/13 03:45:00;;;;;;;7.30;5.03;;;;;;;;;;5111616;27;20536;-74
2022/08/13 03:50:45;;;;;;;8.05;5.30;;;;;;;;;;5111261;27;20458;-75
2022/08/13 03:53:12;;;;;;;11.48;5.78;;;;;;;;;;5111369;28;20030;-75
2022/08/13 03:56:22;;;;;;;8.73;6.00;;;;;;;;;;5110851;27;20410;-75
2022/08/13 03:58:49;;;;;;;8.52;5.93;;;;;;;;;;5110977;28;20024;-75
2022/08/13 04:01:17;;;;;;;9.48;5.60;;;;;;;;;;5111389;28;20050;-76
2022/08/13 04:06:20;;;;;;;8.27;5.68;;;;;;;;;;5111626;27;20392;-75
2022/08/13 04:08:47;;;;;;;7.60;4.78;;;;;;;;;;5111480;28;20034;-74
2022/08/13 04:14:29;;;;;;;8.40;5.10;;;;;;;;;;5111938;27;20900;-75
2022/08/13 04:16:56;;;;;;;7.95;5.00;;;;;;;;;;5111423;28;20030;-75
2022/08/13 04:19:23;;;;;;;9.60;5.07;;;;;;;;;;5109917;28;20380;-75
2022/08/13 04:21:49;;;;;;;7.80;5.03;;;;;;;;;;5111264;28;20016;-75
2022/08/13 04:24:18;;;;;;;9.38;4.90;;;;;;;;;;5111225;28;20456;-74
2022/08/13 04:26:44;;;;;;;8.07;4.72;;;;;;;;;;5110695;28;20077;-74
2022/08/13 04:29:11;;;;;;;9.10;5.13;;;;;;;;;;5111106;28;20028;-74
2022/08/13 04:32:29;;;;;;;6.63;4.28;;;;;;;;;;5111497;27;20981;-74
2022/08/13 04:36:30;;;;;;;6.72;4.57;;;;;;;;;;5111519;27;20426;-75
2022/08/13 04:42:48;;;;;;;7.78;4.75;;;;;;;;;;5111359;27;20381;-75
2022/08/13 04:45:14;;;;;;;9.02;5.03;;;;;;;;;;5111408;28;20032;-75
2022/08/13 04:48:07;;;;;;;9.20;5.43;;;;;;;;;;5110992;27;20973;-75
2022/08/13 04:50:34;;;;;;;7.32;4.78;;;;;;;;;;5111572;28;20036;-75
2022/08/13 04:53:04;;;;;;;7.47;5.18;;;;;;;;;;5110899;28;20024;-75
2022/08/13 04:55:43;;;;;;;6.93;4.20;;;;;;;;;;5112222;27;20912;-75
2022/08/13 04:58:09;;;;;;;8.85;4.90;;;;;;;;;;5111694;28;20028;-75
2022/08/13 05:00:35;;;;;;;7.65;4.90;;;;;;;;;;5111065;28;20065;-75
2022/08/13 05:03:21;;;;;;;7.05;4.35;;;;;;;;;;5111382;28;20031;-75
2022/08/13 05:05:48;;;;;;;6.60;4.45;;;;;;;;;;5111640;28;20072;-75
2022/08/13 05:08:15;;;;;;;8.10;5.25;;;;;;;;;;5110783;28;20073;-75
2022/08/13 05:11:48;;;;;;;7.70;4.85;;;;;;;;;;5111734;27;20980;-75
2022/08/13 05:16:07;;;;;;;6.53;4.70;;;;;;;;;;5111078;27;20445;-75
2022/08/13 05:20:24;;;;;;;7.88;5.22;;;;;;;;;;5111743;27;20392;-75
2022/08/13 05:22:50;;;;;;;6.93;4.93;;;;;;;;;;5109753;28;20118;-76
2022/08/13 05:25:17;;;;;;;8.68;5.50;;;;;;;;;;5111542;28;20452;-75
2022/08/13 05:27:44;;;;;;;8.25;5.03;;;;;;;;;;5111279;28;20024;-75
2022/08/13 05:30:12;;;;;;;7.22;4.35;;;;;;;;;;5110787;28;20035;-75
2022/08/13 05:37:46;;;;;;;7.97;4.82;;;;;;;;;;5112068;27;20891;-75
2022/08/13 05:40:13;;;;;;;8.05;4.68;;;;;;;;;;5111383;28;20424;-75
2022/08/13 05:44:12;;;;;;;7.03;4.55;;;;;;;;;;5111153;27;20422;-76
2022/08/13 05:46:38;;;;;;;7.95;4.97;;;;;;;;;;5111554;28;20015;-76
2022/08/13 05:50:27;;;;;;;7.38;5.18;;;;;;;;;;5111202;27;20393;-75
2022/08/13 05:52:53;;;;;;;8.10;4.88;;;;;;;;;;5111592;28;20024;-75
2022/08/13 05:55:20;;;;;;;6.97;4.45;;;;;;;;;;5111300;28;20476;-75
2022/08/13 05:57:46;;;;;;;7.10;4.32;;;;;;;;;;5110902;28;20506;-75
2022/08/13 06:04:10;;;;;;;7.53;4.63;;;;;;;;;;5111055;27;20422;-75
2022/08/13 06:06:36;;;;;;;7.68;5.15;;;;;;;;;;5111615;28;20031;-75
2022/08/13 06:09:06;;;;;;;8.13;5.47;;;;;;;;;;5111364;28;20074;-75
2022/08/13 06:13:13;;;;;;;9.23;6.70;;;;;;;;;;5111331;27;20457;-75
2022/08/13 06:16:03;;;;;;;9.55;5.93;;;;;;;;;;5111513;27;20422;-76
2022/08/13 06:18:49;;;;;;;8.80;5.70;;;;;;;;;;5111207;27;20384;-75
2022/08/13 06:21:25;;;;;;;10.30;6.65;;;;;;;;;;5111629;27;20469;-75
2022/08/13 06:23:52;;;;;;;10.77;7.22;;;;;;;;;;5111753;28;20472;-75
2022/08/13 06:26:20;;;;;;;8.13;5.57;;;;;;;;;;5109637;28;20028;-75
2022/08/13 06:28:47;;;;;;;7.25;5.05;;;;;;;;;;5111354;28;20024;-75
2022/08/13 06:34:00;;;;;;;7.93;5.63;;;;;;;;;;5133894;27;20659;-75
2022/08/13 06:37:22;;;;;;;7.75;4.28;;;;;;;;;;5071150;28;20429;-75
2022/08/13 06:40:09;;;;;;;8.43;5.05;;;;;;;;;;5111142;27;20381;-75
2022/08/13 06:42:36;;;;;;;9.32;5.35;;;;;;;;;;5110002;28;20082;-75
2022/08/13 06:45:04;;;;;;;9.23;5.47;;;;;;;;;;5111532;28;20024;-75
2022/08/13 06:47:52;;;;;;;9.10;5.28;;;;;;;;;;5111775;27;20385;-75
2022/08/13 06:50:18;;;;;;;7.68;5.03;;;;;;;;;;5111598;28;20486;-75
2022/08/13 06:52:44;;;;;;;9.20;5.03;;;;;;;;;;5111464;28;20356;-75
2022/08/13 06:55:11;;;;;;;8.98;5.60;;;;;;;;;;5111258;28;20534;-76
2022/08/13 06:57:37;;;;;;;7.28;5.30;;;;;;;;;;5111346;28;20028;-75
2022/08/13 07:03:39;;;;;;;8.63;5.30;;;;;;;;;;5131986;27;20444;-75
2022/08/13 07:07:22;;;;;;;9.18;6.22;;;;;;;;;;5111020;27;20393;-75
2022/08/13 07:09:50;;;;;;;9.27;5.45;;;;;;;;;;5111418;28;20024;-75
2022/08/13 07:12:16;;;;;;;10.40;6.80;;;;;;;;;;5111200;28;20027;-75
2022/08/13 07:14:43;;;;;;;9.07;5.93;;;;;;;;;;5110853;28;20056;-75
2022/08/13 07:18:10;;;;;;;8.77;6.30;;;;;;;;;;5111477;27;20512;-75
2022/08/13 07:20:36;;;;;;;8.02;4.80;;;;;;;;;;5110934;28;20020;-75
2022/08/13 07:23:02;;;;;;;9.35;5.55;;;;;;;;;;5111234;28;20049;-75
2022/08/13 07:25:32;;;;;;;8.48;6.03;;;;;;;;;;5110046;28;20032;-75
2022/08/13 07:27:59;;;;;;;8.90;6.07;;;;;;;;;;5111050;28;20020;-75
2022/08/13 07:32:10;;;;;;;7.25;4.90;;;;;;;;;;5111424;27;20377;-75
2022/08/13 07:34:37;;;;;;;10.30;6.13;;;;;;;;;;5111295;28;20020;-76
2022/08/13 07:40:52;;;;;;;8.73;5.72;;;;;;;;;;5112278;27;20396;-76
2022/08/13 07:43:19;;;;;;;8.65;6.15;;;;;;;;;;5110991;28;20036;-76
2022/08/13 07:46:02;;;;;;;8.82;5.45;;;;;;;;;;5111240;28;20073;-75
2022/08/13 07:48:30;;;;;;;8.85;5.95;;;;;;;;;;5110060;28;20041;-75
2022/08/13 07:50:56;;;;;;;8.55;5.15;;;;;;;;;;5110786;28;20027;-76
2022/08/13 07:53:23;;;;;;;9.02;5.88;;;;;;;;;;5111157;28;20031;-76
2022/08/13 07:55:50;;;;;;;8.15;5.38;;;;;;;;;;5111569;28;20378;-76
2022/08/13 07:58:16;;;;;;;8.52;5.32;;;;;;;;;;5111103;28;20073;-76
2022/08/13 08:02:28;;;;;;;8.13;4.97;;;;;;;;;;5112023;27;20414;-76
2022/08/13 08:04:57;;;;;;;10.13;6.38;;;;;;;;;;5110944;28;20035;-75
2022/08/13 08:07:25;;;;;;;8.82;6.15;;;;;;;;;;5111296;28;20028;-75
2022/08/13 08:09:52;;;;;;;8.13;5.70;;;;;;;;;;5110927;28;20020;-75
2022/08/13 08:15:19;;;;;;;8.43;5.72;;;;;;;;;;5098543;28;20430;-76
2022/08/13 08:17:45;;;;;;;7.43;5.03;;;;;;;;;;5110640;28;20111;-76
2022/08/13 08:20:18;;;;;;;7.85;4.97;;;;;;;;;;5111265;28;20039;-76
2022/08/13 08:22:45;;;;;;;9.55;6.05;;;;;;;;;;5111405;28;20111;-75
2022/08/13 08:25:11;;;;;;;11.40;6.00;;;;;;;;;;5110540;28;20019;-76
2022/08/13 08:27:38;;;;;;;7.93;5.35;;;;;;;;;;5110874;28;20517;-76
2022/08/13 08:30:33;;;;;;;9.77;5.13;;;;;;;;;;5111890;27;20422;-74
2022/08/13 08:34:17;;;;;;;7.78;5.53;;;;;;;;;;5111387;27;20991;-76
2022/08/13 08:36:43;;;;;;;7.45;5.05;;;;;;;;;;5111297;28;20460;-76
2022/08/13 08:44:52;;;;;;;8.30;5.13;;;;;;;;;;5111445;27;20388;-75
2022/08/13 08:53:19;;;;;;;8.57;5.28;;;;;;;;;;5152045;27;20111;-76
2022/08/13 08:57:52;;;;;;;8.55;5.45;;;;;;;;;;5111469;27;20396;-76
2022/08/13 09:00:19;;;;;;;7.07;5.03;;;;;;;;;;5110993;28;20047;-76
2022/08/13 09:02:48;;;;;;;9.73;4.57;;;;;;;;;;5111163;28;20027;-76
2022/08/13 09:05:16;;;;;;;7.22;4.32;;;;;;;;;;5109861;28;20027;-76
2022/08/13 09:07:49;;;;;;;8.68;4.47;;;;;;;;;;5110730;28;20028;-76
2022/08/13 09:10:17;;;;;;;7.32;4.68;;;;;;;;;;5111166;28;20024;-76
2022/08/13 09:16:44;;;;;;;7.05;4.40;;;;;;;;;;5111157;27;20121;-76
2022/08/13 09:19:14;;;;;;;8.18;4.72;;;;;;;;;;5110002;28;20020;-76
2022/08/13 09:26:56;;;;;;;7.97;4.97;;;;;;;;;;5112111;27;20401;-76
2022/08/13 09:29:24;;;;;;;6.68;4.07;;;;;;;;;;5111013;28;20437;-76
2022/08/13 09:31:54;;;;;;;6.13;4.30;;;;;;;;;;5111266;28;20020;-76
2022/08/13 09:36:00;;;;;;;7.38;4.07;;;;;;;;;;5110911;27;20414;-76
2022/08/13 09:38:27;;;;;;;6.18;3.95;;;;;;;;;;5111370;28;20031;-76
2022/08/13 09:40:54;;;;;;;7.47;4.35;;;;;;;;;;5111346;28;20020;-75
2022/08/13 09:47:12;;;;;;;6.05;3.95;;;;;;;;;;5112092;27;20446;-76
2022/08/13 09:49:38;;;;;;;6.93;3.97;;;;;;;;;;5110884;28;20016;-76
2022/08/13 09:52:05;;;;;;;7.15;4.30;;;;;;;;;;5111164;28;20077;-76
2022/08/13 09:54:33;;;;;;;9.27;5.03;;;;;;;;;;5111173;28;20031;-76
2022/08/13 09:56:59;;;;;;;7.43;4.38;;;;;;;;;;5110823;28;20019;-76
2022/08/13 09:59:25;;;;;;;7.03;3.95;;;;;;;;;;5111144;28;20430;-76
2022/08/13 10:02:08;;;;;;;10.32;4.72;;;;;;;;;;5112141;27;20415;-76
2022/08/13 10:08:25;;;;;;;6.53;3.65;;;;;;;;;;5153283;27;20119;-76
2022/08/13 10:10:51;;;;;;;5.38;3.28;;;;;;;;;;5133624;27;20023;-76
2022/08/13 10:14:28;;;;;;;5.63;3.58;;;;;;;;;;5111955;27;20582;-76
2022/08/13 10:16:54;;;;;;;5.03;3.38;;;;;;;;;;5110966;28;20032;-76
2022/08/13 10:20:07;;;;;;;4.43;3.30;;;;;;;;;;5111747;27;20965;-76
2022/08/13 10:23:26;;;;;;;6.18;3.72;;;;;;;;;;5111689;27;20986;-76
2022/08/13 10:27:26;;;;;;;6.05;3.88;;;;;;;;;;5111748;27;20396;-76
2022/08/13 10:29:52;;;;;;;4.65;3.25;;;;;;;;;;5111581;28;20484;-76
2022/08/13 10:32:18;;;;;;;6.57;4.00;;;;;;;;;;5110957;28;20039;-76
2022/08/13 10:34:45;;;;;;;4.88;3.28;;;;;;;;;;5111225;28;20069;-77
2022/08/13 10:37:12;;;;;;;5.18;3.20;;;;;;;;;;5111206;28;20031;-77
2022/08/13 10:40:20;;;;;;;5.32;3.45;;;;;;;;;;5111424;27;20393;-77
2022/08/13 10:42:47;;;;;;;6.45;3.13;;;;;;;;;;5111540;28;20422;-77
2022/08/13 10:45:13;;;;;;;6.28;3.20;;;;;;;;;;5110755;28;20024;-76
2022/08/13 10:48:12;;;;;;;6.13;3.60;;;;;;;;;;5112081;27;20422;-78
2022/08/13 10:50:39;;;;;;;5.32;3.58;;;;;;;;;;5110077;28;20020;-79
2022/08/13 10:53:05;;;;;;;5.70;3.42;;;;;;;;;;5110814;28;20031;-76
2022/08/13 10:55:31;;;;;;;5.10;3.42;;;;;;;;;;5111302;28;20028;-76
2022/08/13 10:57:58;;;;;;;5.88;3.60;;;;;;;;;;5111463;28;20117;-77
2022/08/13 11:00:25;;;;;;;6.78;3.35;;;;;;;;;;5110830;28;20023;-76
2022/08/13 11:03:46;;;;;;;7.95;3.78;;;;;;;;;;5111505;27;20426;-78
2022/08/13 11:06:13;;;;;;;6.40;3.55;;;;;;;;;;5110871;28;20027;-78
2022/08/13 11:08:39;;;;;;;6.18;3.38;;;;;;;;;;5111331;28;20536;-76
2022/08/13 11:11:06;;;;;;;5.35;3.53;;;;;;;;;;5111798;28;20024;-78
2022/08/13 11:13:32;;;;;;;5.47;3.15;;;;;;;;;;5111084;28;20024;-78
2022/08/13 11:15:59;;;;;;;3.58;2.33;;;;;;;;;;5109712;28;20077;-78
2022/08/13 11:20:24;;;;;;;4.55;3.05;;;;;;;;;;5111560;27;20405;-76
2022/08/13 11:22:54;;;;;;;4.88;2.90;;;;;;;;;;5111224;28;20028;-79
2022/08/13 11:25:21;;;;;;;4.07;2.80;;;;;;;;;;5111484;28;20024;-76
2022/08/13 11:27:47;;;;;;;4.80;2.80;;;;;;;;;;5110837;28;20049;-79
2022/08/13 11:30:14;;;;;;;4.80;2.95;;;;;;;;;;5111366;28;20433;-75
2022/08/13 11:32:40;;;;;;;4.50;2.97;;;;;;;;;;5111439;28;20024;-78
2022/08/13 11:35:09;;;;;;;4.88;2.92;;;;;;;;;;5110688;28;20098;-76
2022/08/13 11:37:35;;;;;;;4.85;3.28;;;;;;;;;;5111080;28;20020;-76
2022/08/13 11:40:03;;;;;;;3.95;3.10;;;;;;;;;;5110966;28;20035;-76
2022/08/13 11:42:30;;;;;;;4.00;2.80;;;;;;;;;;5110436;28;20502;-76
2022/08/13 11:44:56;;;;;;;4.35;2.90;;;;;;;;;;5110876;28;20024;-76
2022/08/13 11:47:23;;;;;;;4.20;3.03;;;;;;;;;;5110736;28;20052;-76
2022/08/13 11:49:49;;;;;;;4.50;2.80;;;;;;;;;;5110286;28;20031;-76
2022/08/13 11:52:15;;;;;;;4.53;2.88;;;;;;;;;;5111062;28;20030;-77
2022/08/13 11:54:41;;;;;;;4.68;3.05;;;;;;;;;;5110635;28;20023;-77
2022/08/13 11:57:08;;;;;;;4.15;2.50;;;;;;;;;;5110352;28;20024;-77
2022/08/13 11:59:34;;;;;;;3.60;2.53;;;;;;;;;;5110643;28;20035;-77
2022/08/13 12:02:00;;;;;;;4.40;2.88;;;;;;;;;;5110269;28;20020;-78
2022/08/13 12:04:27;;;;;;;4.30;2.58;;;;;;;;;;5110536;28;20133;-77
2022/08/13 12:06:53;;;;;;;4.50;2.70;;;;;;;;;;5110654;28;20024;-77
2022/08/13 12:09:19;;;;;;;3.05;2.35;;;;;;;;;;5109974;28;20028;-76
2022/08/13 12:11:45;;;;;;;4.82;2.70;;;;;;;;;;5110496;28;20023;-77
2022/08/13 12:14:12;;;;;;;4.72;2.88;;;;;;;;;;5110449;28;20038;-77
2022/08/13 12:16:38;;;;;;;4.55;2.85;;;;;;;;;;5109784;28;20020;-77
2022/08/13 12:19:04;;;;;;;4.45;2.90;;;;;;;;;;5110018;28;20137;-77
2022/08/13 12:21:32;;;;;;;4.63;2.80;;;;;;;;;;5110497;28;20376;-77
2022/08/13 12:23:58;;;;;;;3.88;2.83;;;;;;;;;;5110021;28;20054;-77
2022/08/13 12:26:24;;;;;;;5.72;2.97;;;;;;;;;;5108914;28;20057;-77
2022/08/13 12:28:50;;;;;;;3.92;2.72;;;;;;;;;;5110202;28;20107;-77
2022/08/13 12:31:17;;;;;;;6.32;3.17;;;;;;;;;;5098687;28;20452;-77
2022/08/13 12:33:43;;;;;;;5.05;3.00;;;;;;;;;;5096406;28;20024;-78
2022/08/13 12:36:10;;;;;;;3.88;2.80;;;;;;;;;;5096647;28;20101;-78
2022/08/13 12:38:37;;;;;;;4.07;2.80;;;;;;;;;;5095832;28;20024;-78
2022/08/13 12:41:03;;;;;;;4.22;2.78;;;;;;;;;;5096205;28;20028;-78
2022/08/13 12:43:29;;;;;;;3.70;2.60;;;;;;;;;;5096376;28;20020;-78
2022/08/13 12:45:55;;;;;;;5.07;3.05;;;;;;;;;;5095988;28;20020;-78
2022/08/13 12:48:21;;;;;;;3.63;2.50;;;;;;;;;;5094786;28;20547;-78
2022/08/13 12:50:48;;;;;;;4.70;2.63;;;;;;;;;;5096335;28;20044;-78
2022/08/13 12:53:16;;;;;;;4.43;2.90;;;;;;;;;;5095562;28;20542;-78
2022/08/13 12:55:44;;;;;;;4.82;2.58;;;;;;;;;;5096021;28;20475;-78
2022/08/13 12:58:17;;;;;;;4.43;2.45;;;;;;;;;;5095386;28;20031;-79
2022/08/13 13:00:44;;;;;;;4.68;2.72;;;;;;;;;;5095912;28;20380;-78
2022/08/13 13:03:11;;;;;;;5.10;2.90;;;;;;;;;;5096240;28;20021;-78
2022/08/13 13:05:37;;;;;;;4.18;2.72;;;;;;;;;;5095734;28;20036;-77
2022/08/13 13:08:13;;;;;;;3.88;2.75;;;;;;;;;;5095946;28;20462;-78
2022/08/13 13:10:40;;;;;;;4.03;2.40;;;;;;;;;;5096097;28;20024;-78
2022/08/13 13:13:06;;;;;;;4.38;3.03;;;;;;;;;;5095252;28;20088;-78
2022/08/13 13:15:32;;;;;;;4.43;2.70;;;;;;;;;;5095614;28;20031;-78
2022/08/13 13:17:59;;;;;;;3.40;2.33;;;;;;;;;;5095430;28;20542;-77
2022/08/13 13:20:25;;;;;;;3.85;2.70;;;;;;;;;;5095159;28;20032;-78
2022/08/13 13:22:51;;;;;;;4.70;2.75;;;;;;;;;;5094226;28;20103;-78
2022/08/13 13:25:19;;;;;;;4.90;3.10;;;;;;;;;;5095632;28;20056;-77
2022/08/13 13:27:46;;;;;;;4.00;2.53;;;;;;;;;;5095379;28;20020;-77
2022/08/13 13:30:12;;;;;;;4.45;2.40;;;;;;;;;;5095572;28;20058;-77
2022/08/13 13:32:40;;;;;;;5.07;3.10;;;;;;;;;;5095356;28;20024;-77
2022/08/13 13:35:06;;;;;;;3.83;2.50;;;;;;;;;;5094866;28;20019;-77
2022/08/13 13:37:42;;;;;;;2.85;2.20;;;;;;;;;;5095338;28;20387;-78
2022/08/13 13:40:09;;;;;;;3.45;2.10;;;;;;;;;;5095186;28;20434;-77
2022/08/13 13:42:35;;;;;;;3.65;2.38;;;;;;;;;;5093726;28;20464;-76
2022/08/13 13:45:02;;;;;;;2.97;2.20;;;;;;;;;;5095123;28;20027;-77
2022/08/13 13:47:29;;;;;;;4.50;2.50;;;;;;;;;;5094817;28;20016;-77
2022/08/13 13:49:55;;;;;;;4.28;2.47;;;;;;;;;;5095008;28;20124;-77
2022/08/13 13:52:22;;;;;;;3.72;2.38;;;;;;;;;;5095092;28;20529;-77
2022/08/13 13:54:53;;;;;;;3.33;2.35;;;;;;;;;;5094773;28;20038;-78
2022/08/13 13:57:19;;;;;;;3.78;2.63;;;;;;;;;;5095495;28;20166;-77
2022/08/13 13:59:45;;;;;;;3.30;2.13;;;;;;;;;;5095020;28;20473;-77
2022/08/13 14:02:12;;;;;;;3.72;2.40;;;;;;;;;;5094303;28;20028;-77
2022/08/13 14:04:40;;;;;;;4.43;3.20;;;;;;;;;;5094652;28;20073;-76
2022/08/13 14:07:06;;;;;;;4.95;2.88;;;;;;;;;;5094636;28;20038;-76
2022/08/13 14:09:34;;;;;;;4.38;2.50;;;;;;;;;;5094224;28;20032;-76
2022/08/13 14:12:02;;;;;;;4.57;2.47;;;;;;;;;;5094617;28;20044;-76
2022/08/13 14:14:28;;;;;;;3.92;2.63;;;;;;;;;;5094515;28;20026;-76
2022/08/13 14:16:54;;;;;;;5.70;2.53;;;;;;;;;;5094180;28;20020;-75
2022/08/13 14:19:21;;;;;;;3.65;2.58;;;;;;;;;;5094317;28;20055;-76
2022/08/13 14:21:49;;;;;;;4.32;2.70;;;;;;;;;;5094612;28;20521;-76
2022/08/13 14:24:17;;;;;;;3.88;2.42;;;;;;;;;;5093982;28;20020;-76
2022/08/13 14:26:45;;;;;;;4.38;2.40;;;;;;;;;;5094305;28;20506;-77
2022/08/13 14:29:11;;;;;;;3.85;2.50;;;;;;;;;;5094347;28;20024;-76
2022/08/13 14:31:37;;;;;;;2.85;2.03;;;;;;;;;;5094064;28;20024;-76
2022/08/13 14:34:03;;;;;;;3.33;2.25;;;;;;;;;;5094115;28;20476;-76
2022/08/13 14:36:31;;;;;;;3.63;2.20;;;;;;;;;;5094169;28;20020;-76
2022/08/13 14:38:58;;;;;;;2.38;1.90;;;;;;;;;;5092725;28;20384;-77
2022/08/13 14:41:24;;;;;;;3.50;2.30;;;;;;;;;;5094126;28;20103;-77
2022/08/13 14:43:50;;;;;;;2.75;2.08;;;;;;;;;;5093764;28;20027;-76
2022/08/13 14:46:17;;;;;;;3.25;2.20;;;;;;;;;;5094087;28;20028;-76
2022/08/13 14:48:43;;;;;;;2.58;1.65;;;;;;;;;;5093950;28;20471;-77
2022/08/13 14:51:10;;;;;;;3.20;1.98;;;;;;;;;;5093614;28;20517;-77
2022/08/13 14:53:39;;;;;;;2.03;1.50;;;;;;;;;;5093678;28;20065;-77
2022/08/13 14:56:06;;;;;;;2.75;1.92;;;;;;;;;;5092652;28;20068;-76
2022/08/13 14:58:32;;;;;;;4.70;1.98;;;;;;;;;;5093248;28;20024;-76
2022/08/13 15:00:59;;;;;;;2.72;1.95;;;;;;;;;;5093851;28;20028;-77
2022/08/13 15:03:26;;;;;;;2.95;1.83;;;;;;;;;;5092449;28;20024;-77
2022/08/13 15:05:53;;;;;;;5.88;2.08;;;;;;;;;;5093456;28;20055;-76
2022/08/13 15:08:20;;;;;;;2.60;1.98;;;;;;;;;;5093666;28;20607;-76
2022/08/13 15:10:50;;;;;;;3.58;2.33;;;;;;;;;;5093713;28;20388;-76
2022/08/13 15:13:17;;;;;;;3.60;2.30;;;;;;;;;;5093653;28;20027;-76
2022/08/13 15:15:44;;;;;;;3.20;2.10;;;;;;;;;;5093816;28;20024;-76
2022/08/13 15:18:10;;;;;;;3.67;2.50;;;;;;;;;;5093298;28;20016;-75
2022/08/13 15:20:39;;;;;;;2.95;2.22;;;;;;;;;;5093199;28;20028;-76
2022/08/13 15:23:06;;;;;;;2.97;2.00;;;;;;;;;;5093477;28;20031;-76
2022/08/13 15:25:33;;;;;;;2.67;1.75;;;;;;;;;;5093440;28;20024;-76
2022/08/13 15:28:00;;;;;;;3.03;2.00;;;;;;;;;;5093086;28;20023;-77
2022/08/13 15:30:29;;;;;;;4.25;2.10;;;;;;;;;;5094060;28;20156;-76
2022/08/13 15:32:57;;;;;;;3.40;2.15;;;;;;;;;;5093131;28;20020;-76
2022/08/13 15:35:32;;;;;;;3.05;2.10;;;;;;;;;;5093646;28;20074;-76
2022/08/13 15:37:59;;;;;;;3.70;2.45;;;;;;;;;;5093635;28;20028;-76
2022/08/13 15:40:26;;;;;;;3.47;2.00;;;;;;;;;;5092905;28;20070;-76
2022/08/13 15:42:52;;;;;;;6.32;4.18;;;;;;;;;;5093288;28;20020;-76
2022/08/13 15:45:18;;;;;;;6.35;3.72;;;;;;;;;;5094770;28;20029;-76
2022/08/13 15:47:46;;;;;;;4.40;2.75;;;;;;;;;;5097343;28;20020;-76
2022/08/13 15:50:12;;;;;;;4.03;2.60;;;;;;;;;;5097172;28;20418;-76
2022/08/13 15:52:39;;;;;;;3.55;2.42;;;;;;;;;;5093282;28;20024;-77
2022/08/13 15:55:07;;;;;;;3.55;2.10;;;;;;;;;;5092952;28;20027;-78
2022/08/13 15:57:33;;;;;;;3.90;2.35;;;;;;;;;;5093304;28;20031;-79
2022/08/13 16:00:00;;;;;;;4.07;2.60;;;;;;;;;;5093228;28;20032;-77
2022/08/13 16:02:27;;;;;;;3.78;2.40;;;;;;;;;;5092860;28;20028;-77
2022/08/13 16:04:54;;;;;;;3.83;2.45;;;;;;;;;;5093300;28;20024;-78
2022/08/13 16:07:21;;;;;;;3.70;2.47;;;;;;;;;;5097403;28;20016;-76
2022/08/13 16:09:48;;;;;;;3.45;2.08;;;;;;;;;;5096567;28;20104;-76
2022/08/13 16:12:15;;;;;;;2.97;2.08;;;;;;;;;;5096854;28;20023;-76
2022/08/13 16:14:42;;;;;;;3.70;2.42;;;;;;;;;;5096715;28;20031;-76
2022/08/13 16:17:12;;;;;;;6.68;2.35;;;;;;;;;;5096341;28;20424;-76
2022/08/13 16:19:42;;;;;;;4.50;2.67;;;;;;;;;;5096672;28;20036;-76
2022/08/13 16:22:11;;;;;;;5.00;3.08;;;;;;;;;;5096829;28;20413;-76
2022/08/13 16:24:37;;;;;;;5.75;3.35;;;;;;;;;;5096936;28;20027;-76
2022/08/13 16:27:04;;;;;;;6.20;3.83;;;;;;;;;;5095304;28;20092;-76
2022/08/13 16:29:35;;;;;;;6.53;4.03;;;;;;;;;;5096192;28;20032;-76
2022/08/13 16:32:04;;;;;;;7.97;4.03;;;;;;;;;;5096586;28;20028;-75
2022/08/13 16:35:45;;;;;;;7.75;4.80;;;;;;;;;;5124077;27;20806;-76
2022/08/13 16:38:14;;;;;;;8.30;5.03;;;;;;;;;;5089467;28;20041;-77
2022/08/13 16:40:45;;;;;;;9.02;5.53;;;;;;;;;;5089668;28;20422;-76
2022/08/13 16:43:11;;;;;;;8.05;5.57;;;;;;;;;;5090673;28;20496;-76
2022/08/13 16:45:39;;;;;;;9.68;5.70;;;;;;;;;;5090672;28;20020;-77
2022/08/13 16:48:13;;;;;;;8.63;4.85;;;;;;;;;;5089565;28;20111;-76
2022/08/13 16:50:40;;;;;;;8.55;5.10;;;;;;;;;;5089088;28;20025;-77
2022/08/13 16:53:07;;;;;;;8.07;4.75;;;;;;;;;;5090603;28;20024;-76
2022/08/13 16:55:33;;;;;;;6.35;4.00;;;;;;;;;;5090587;28;20032;-76
2022/08/13 16:59:22;;;;;;;5.57;3.92;;;;;;;;;;5122396;27;20401;-76
2022/08/13 17:01:50;;;;;;;6.65;4.10;;;;;;;;;;5090945;28;20107;-76
2022/08/13 17:09:46;;;;;;;9.45;5.32;;;;;;;;;;5091113;28;20430;-76
2022/08/13 17:12:12;;;;;;;9.18;6.22;;;;;;;;;;5090530;28;20602;-76
2022/08/13 17:14:38;;;;;;;11.40;6.80;;;;;;;;;;5090797;28;20031;-76
2022/08/13 17:17:04;;;;;;;9.77;5.15;;;;;;;;;;5090442;28;20020;-76
2022/08/13 17:19:32;;;;;;;7.50;4.90;;;;;;;;;;5090377;28;20048;-76
2022/08/13 17:21:59;;;;;;;7.82;4.53;;;;;;;;;;5090625;28;20028;-76
2022/08/13 17:24:27;;;;;;;8.63;5.50;;;;;;;;;;5090853;28;20442;-76
2022/08/13 17:26:54;;;;;;;11.30;7.00;;;;;;;;;;5090211;28;20017;-76
2022/08/13 17:29:50;;;;;;;12.25;7.75;;;;;;;;;;5122922;27;20393;-75
2022/08/13 17:32:17;;;;;;;11.07;7.30;;;;;;;;;;5091548;28;20024;-74
2022/08/13 17:34:44;;;;;;;14.52;6.82;;;;;;;;;;5091228;28;20066;-77
2022/08/13 17:38:12;;;;;;;11.88;5.80;;;;;;;;;;5122906;27;20400;-76
2022/08/13 17:40:39;;;;;;;8.93;5.82;;;;;;;;;;5090554;28;20035;-76